Portada
METAR-TAF:

METAR-TAF

Aeroports :

Huatulco, Mèxic

latitud: 15-47N, longitud: 096-16W, altitud: 143 m

Observació

L'informe es va fer fa 1 hora i 47 minuts, a les 02:40 UTC
Vent calma
Temperatura 25°C
Humitat 79%
Pressió 1014 hPa
Visibilitat: 12.9 km
Cel clar

METAR: MMBT 060240Z 00000KT 8SM SKC 25/21 A2993

Hora: 22:27 (04:27 UTC)

Pronòstic

L'informe es va fer fa 12 hores i 1 minuts, a les 16:26 UTC
Pronòstic vàlid del 05 a les 18 UTC al 06 a les 18 UTC
Vent 10 kt del Sud-Oest
Visibilitat: 10 km
Cel clar
A partir de les 06 a les 0000 UTC
Vent kt del Nord
Visibilitat: 10 km
Núvols disperses a una alçada de 3000 ft
A partir de les 06 a les 1600 UTC
Vent 7 kt del Oest/Sud-Oest
Visibilitat: 10 km
Cel clar

TAF: MMBT 051626Z 0518/0618 22010KT P6SM SKC FM060000 00000KT P6SM SCT030 FM061600 25007KT P6SM SKC

Observacions i pronòstics meteorològics de més de 4000 aeroports (METAR i TAF).

Les estacions disponibles són els punts grocs i vermells al mapa.

Posi el ratolí al punt desitjat per veure el nom de l'estació.

Feu clic per veure les observacions i els pronòstics meteorològics.

Per canviar el mapa: feu clic els botons verds amb una creu de color negre per apropar; al botó verd amb un guió per allunyar la imatge; o en les fletxes verdes per a mapes adjacents.


METAR-TAF: